sensor_id;sensor_type;location;lat;lon;timestamp;pressure;altitude;pressure_sealevel;temperature;humidity
46394;BME280;32099;53.588;10.176;2022-08-19T00:01:33;100874.00;;;20.85;72.35
46394;BME280;32099;53.588;10.176;2022-08-19T00:04:00;100863.16;;;20.84;72.42
46394;BME280;32099;53.588;10.176;2022-08-19T00:06:26;100865.00;;;20.78;72.47
46394;BME280;32099;53.588;10.176;2022-08-19T00:08:51;100861.38;;;20.77;72.39
46394;BME280;32099;53.588;10.176;2022-08-19T00:11:17;100846.94;;;20.75;72.93
46394;BME280;32099;53.588;10.176;2022-08-19T00:13:42;100841.03;;;20.72;72.83
46394;BME280;32099;53.588;10.176;2022-08-19T00:16:07;100835.38;;;20.66;72.87
46394;BME280;32099;53.588;10.176;2022-08-19T00:18:33;100837.31;;;20.66;73.19
46394;BME280;32099;53.588;10.176;2022-08-19T00:20:58;100847.31;;;20.67;73.15
46394;BME280;32099;53.588;10.176;2022-08-19T00:23:24;100852.84;;;20.67;73.34
46394;BME280;32099;53.588;10.176;2022-08-19T00:25:49;100868.28;;;20.63;73.55
46394;BME280;32099;53.588;10.176;2022-08-19T00:28:15;100869.16;;;20.63;73.82
46394;BME280;32099;53.588;10.176;2022-08-19T00:30:40;100866.38;;;20.63;73.80
46394;BME280;32099;53.588;10.176;2022-08-19T00:33:05;100869.16;;;20.63;73.64
46394;BME280;32099;53.588;10.176;2022-08-19T00:35:32;100862.75;;;20.63;73.80
46394;BME280;32099;53.588;10.176;2022-08-19T00:37:58;100856.13;;;20.64;73.74
46394;BME280;32099;53.588;10.176;2022-08-19T00:40:24;100851.19;;;20.66;73.96
46394;BME280;32099;53.588;10.176;2022-08-19T00:42:50;100853.09;;;20.65;74.18
46394;BME280;32099;53.588;10.176;2022-08-19T00:45:19;100850.31;;;20.65;73.90
46394;BME280;32099;53.588;10.176;2022-08-19T00:47:45;100849.59;;;20.70;73.98
46394;BME280;32099;53.588;10.176;2022-08-19T00:50:11;100837.66;;;20.70;74.34
46394;BME280;32099;53.588;10.176;2022-08-19T00:52:38;100835.75;;;20.70;74.06
46394;BME280;32099;53.588;10.176;2022-08-19T00:55:06;100834.63;;;20.71;74.20
46394;BME280;32099;53.588;10.176;2022-08-19T00:57:36;100820.78;;;20.71;73.98
46394;BME280;32099;53.588;10.176;2022-08-19T01:00:04;100817.44;;;20.69;74.16
46394;BME280;32099;53.588;10.176;2022-08-19T01:02:30;100822.97;;;20.69;74.60
46394;BME280;32099;53.588;10.176;2022-08-19T01:04:56;100828.53;;;20.69;74.24
46394;BME280;32099;53.588;10.176;2022-08-19T01:07:22;100821.91;;;20.70;74.02
46394;BME280;32099;53.588;10.176;2022-08-19T01:09:47;100822.13;;;20.69;74.19
46394;BME280;32099;53.588;10.176;2022-08-19T01:12:12;100827.66;;;20.69;74.20
46394;BME280;32099;53.588;10.176;2022-08-19T01:14:38;100819.34;;;20.69;74.43
46394;BME280;32099;53.588;10.176;2022-08-19T01:17:04;100818.75;;;20.66;74.56
46394;BME280;32099;53.588;10.176;2022-08-19T01:19:39;100826.72;;;20.63;74.61
46394;BME280;32099;53.588;10.176;2022-08-19T01:22:10;100823.72;;;20.64;74.93
46394;BME280;32099;53.588;10.176;2022-08-19T01:24:37;100821.19;;;20.63;74.74
46394;BME280;32099;53.588;10.176;2022-08-19T01:27:04;100812.06;;;20.62;74.88
46394;BME280;32099;53.588;10.176;2022-08-19T01:29:29;100815.91;;;20.61;74.86
46394;BME280;32099;53.588;10.176;2022-08-19T01:31:54;100817.50;;;20.57;74.51
46394;BME280;32099;53.588;10.176;2022-08-19T01:34:20;100821.59;;;20.55;75.48
46394;BME280;32099;53.588;10.176;2022-08-19T01:36:45;100828.22;;;20.54;74.95
46394;BME280;32099;53.588;10.176;2022-08-19T01:39:14;100819.66;;;20.55;75.05
46394;BME280;32099;53.588;10.176;2022-08-19T01:41:40;100823.63;;;20.59;75.03
46394;BME280;32099;53.588;10.176;2022-08-19T01:44:06;100814.72;;;20.57;74.83
46394;BME280;32099;53.588;10.176;2022-08-19T01:46:31;100810.53;;;20.55;75.17
46394;BME280;32099;53.588;10.176;2022-08-19T01:48:57;100810.53;;;20.55;74.91
46394;BME280;32099;53.588;10.176;2022-08-19T01:51:22;100808.25;;;20.52;75.23
46394;BME280;32099;53.588;10.176;2022-08-19T01:53:48;100809.31;;;20.50;75.41
46394;BME280;32099;53.588;10.176;2022-08-19T01:56:13;100803.78;;;20.50;75.35
46394;BME280;32099;53.588;10.176;2022-08-19T01:58:40;100804.38;;;20.53;75.08
46394;BME280;32099;53.588;10.176;2022-08-19T02:01:06;100798.84;;;20.53;75.43
46394;BME280;32099;53.588;10.176;2022-08-19T02:03:31;100803.56;;;20.52;75.29
46394;BME280;32099;53.588;10.176;2022-08-19T02:05:57;100797.75;;;20.54;75.48
46394;BME280;32099;53.588;10.176;2022-08-19T02:08:24;100798.34;;;20.56;75.96
46394;BME280;32099;53.588;10.176;2022-08-19T02:10:49;100795.25;;;20.52;75.42
46394;BME280;32099;53.588;10.176;2022-08-19T02:13:15;100795.13;;;20.47;75.44
46394;BME280;32099;53.588;10.176;2022-08-19T02:15:40;100792.84;;;20.44;75.95
46394;BME280;32099;53.588;10.176;2022-08-19T02:18:05;100780.38;;;20.41;76.04
46394;BME280;32099;53.588;10.176;2022-08-19T02:20:34;100778.94;;;20.39;76.72
46394;BME280;32099;53.588;10.176;2022-08-19T02:23:00;100771.38;;;20.34;76.05
46394;BME280;32099;53.588;10.176;2022-08-19T02:25:26;100776.06;;;20.33;76.21
46394;BME280;32099;53.588;10.176;2022-08-19T02:27:51;100782.44;;;20.34;76.63
46394;BME280;32099;53.588;10.176;2022-08-19T02:30:16;100791.59;;;20.34;76.35
46394;BME280;32099;53.588;10.176;2022-08-19T02:32:42;100788.06;;;20.39;76.31
46394;BME280;32099;53.588;10.176;2022-08-19T02:35:08;100791.44;;;20.41;76.58
46394;BME280;32099;53.588;10.176;2022-08-19T02:37:33;100789.16;;;20.38;76.55
46394;BME280;32099;53.588;10.176;2022-08-19T02:40:17;100789.06;;;20.33;76.64
46394;BME280;32099;53.588;10.176;2022-08-19T02:42:43;100788.00;;;20.34;76.55
46394;BME280;32099;53.588;10.176;2022-08-19T02:45:08;100786.03;;;20.34;76.73
46394;BME280;32099;53.588;10.176;2022-08-19T02:47:34;100788.81;;;20.34;76.66
46394;BME280;32099;53.588;10.176;2022-08-19T02:50:00;100783.28;;;20.34;76.52
46394;BME280;32099;53.588;10.176;2022-08-19T02:52:26;100779.91;;;20.32;76.89
46394;BME280;32099;53.588;10.176;2022-08-19T02:54:52;100783.75;;;20.31;76.93
46394;BME280;32099;53.588;10.176;2022-08-19T02:57:17;100791.59;;;20.34;77.29
46394;BME280;32099;53.588;10.176;2022-08-19T02:59:42;100788.22;;;20.32;77.51
46394;BME280;32099;53.588;10.176;2022-08-19T03:02:07;100773.56;;;20.32;76.66
46394;BME280;32099;53.588;10.176;2022-08-19T03:04:34;100778.81;;;20.33;76.92
46394;BME280;32099;53.588;10.176;2022-08-19T03:06:59;100778.00;;;20.33;76.90
46394;BME280;32099;53.588;10.176;2022-08-19T03:09:24;100788.22;;;20.32;76.92
46394;BME280;32099;53.588;10.176;2022-08-19T03:11:49;100779.69;;;20.34;76.91
46394;BME280;32099;53.588;10.176;2022-08-19T03:14:15;100781.38;;;20.35;77.25
46394;BME280;32099;53.588;10.176;2022-08-19T03:16:41;100785.22;;;20.34;77.30
46394;BME280;32099;53.588;10.176;2022-08-19T03:19:07;100788.47;;;20.31;76.86
46394;BME280;32099;53.588;10.176;2022-08-19T03:21:33;100770.44;;;20.28;77.10
46394;BME280;32099;53.588;10.176;2022-08-19T03:23:59;100783.69;;;20.26;77.16
46394;BME280;32099;53.588;10.176;2022-08-19T03:26:25;100782.25;;;20.24;77.17
46394;BME280;32099;53.588;10.176;2022-08-19T03:28:50;100786.94;;;20.23;77.50
46394;BME280;32099;53.588;10.176;2022-08-19T03:31:16;100791.13;;;20.26;77.39
46394;BME280;32099;53.588;10.176;2022-08-19T03:33:41;100800.53;;;20.25;77.35
46394;BME280;32099;53.588;10.176;2022-08-19T03:38:33;100792.81;;;20.27;77.95
46394;BME280;32099;53.588;10.176;2022-08-19T03:41:01;100790.03;;;20.27;77.71
46394;BME280;32099;53.588;10.176;2022-08-19T03:43:27;100793.69;;;20.27;77.47
46394;BME280;32099;53.588;10.176;2022-08-19T03:46:03;100798.63;;;20.25;77.65
46394;BME280;32099;53.588;10.176;2022-08-19T03:48:29;100804.88;;;20.21;77.52
46394;BME280;32099;53.588;10.176;2022-08-19T03:50:55;100814.28;;;20.19;77.63
46394;BME280;32099;53.588;10.176;2022-08-19T03:53:20;100828.72;;;20.22;77.25
46394;BME280;32099;53.588;10.176;2022-08-19T03:55:45;100837.38;;;20.25;77.25
46394;BME280;32099;53.588;10.176;2022-08-19T03:58:11;100834.94;;;20.29;76.89
46394;BME280;32099;53.588;10.176;2022-08-19T04:00:36;100842.16;;;20.30;77.12
46394;BME280;32099;53.588;10.176;2022-08-19T04:03:01;100832.53;;;20.32;77.31
46394;BME280;32099;53.588;10.176;2022-08-19T04:05:28;100836.38;;;20.31;76.88
46394;BME280;32099;53.588;10.176;2022-08-19T04:07:53;100846.97;;;20.34;76.66
46394;BME280;32099;53.588;10.176;2022-08-19T04:10:19;100840.34;;;20.35;76.69
46394;BME280;32099;53.588;10.176;2022-08-19T04:12:45;100848.38;;;20.37;76.82
46394;BME280;32099;53.588;10.176;2022-08-19T04:15:11;100832.38;;;20.39;76.54
46394;BME280;32099;53.588;10.176;2022-08-19T04:17:36;100838.16;;;20.38;76.66
46394;BME280;32099;53.588;10.176;2022-08-19T04:20:01;100845.13;;;20.40;76.46
46394;BME280;32099;53.588;10.176;2022-08-19T04:22:26;100844.53;;;20.38;76.58
46394;BME280;32099;53.588;10.176;2022-08-19T04:24:51;100845.41;;;20.39;76.78
46394;BME280;32099;53.588;10.176;2022-08-19T04:27:17;100856.97;;;20.35;76.99
46394;BME280;32099;53.588;10.176;2022-08-19T04:29:42;100854.44;;;20.34;77.21
46394;BME280;32099;53.588;10.176;2022-08-19T04:32:08;100853.25;;;20.30;77.23
46394;BME280;32099;53.588;10.176;2022-08-19T04:34:33;100856.25;;;20.28;77.02
46394;BME280;32099;53.588;10.176;2022-08-19T04:36:58;100864.06;;;20.31;77.08
46394;BME280;32099;53.588;10.176;2022-08-19T04:39:28;100859.63;;;20.30;76.94
46394;BME280;32099;53.588;10.176;2022-08-19T04:42:12;100856.34;;;20.33;76.66
46394;BME280;32099;53.588;10.176;2022-08-19T04:44:56;100854.78;;;20.38;76.80
46394;BME280;32099;53.588;10.176;2022-08-19T04:47:23;100856.22;;;20.40;76.67
46394;BME280;32099;53.588;10.176;2022-08-19T04:49:48;100847.91;;;20.40;76.88
46394;BME280;32099;53.588;10.176;2022-08-19T04:52:13;100850.69;;;20.40;77.06
46394;BME280;32099;53.588;10.176;2022-08-19T04:54:39;100856.69;;;20.37;76.78
46394;BME280;32099;53.588;10.176;2022-08-19T04:57:05;100863.09;;;20.38;76.61
46394;BME280;32099;53.588;10.176;2022-08-19T04:59:31;100867.19;;;20.35;77.16
46394;BME280;32099;53.588;10.176;2022-08-19T05:01:57;100868.50;;;20.32;76.75
46394;BME280;32099;53.588;10.176;2022-08-19T05:04:22;100867.69;;;20.32;77.30
46394;BME280;32099;53.588;10.176;2022-08-19T05:06:48;100874.91;;;20.33;77.07
46394;BME280;32099;53.588;10.176;2022-08-19T05:09:14;100865.75;;;20.32;77.10
46394;BME280;32099;53.588;10.176;2022-08-19T05:11:40;100870.81;;;20.35;77.24
46394;BME280;32099;53.588;10.176;2022-08-19T05:14:06;100876.09;;;20.37;77.41
46394;BME280;32099;53.588;10.176;2022-08-19T05:16:31;100883.31;;;20.38;77.18
46394;BME280;32099;53.588;10.176;2022-08-19T05:18:56;100891.03;;;20.36;77.42
46394;BME280;32099;53.588;10.176;2022-08-19T05:22:00;100882.34;;;20.32;76.91
46394;BME280;32099;53.588;10.176;2022-08-19T05:24:44;100880.09;;;20.29;77.42
46394;BME280;32099;53.588;10.176;2022-08-19T05:27:09;100890.91;;;20.31;76.88
46394;BME280;32099;53.588;10.176;2022-08-19T05:29:34;100894.78;;;20.30;77.16
46394;BME280;32099;53.588;10.176;2022-08-19T05:32:00;100897.53;;;20.30;76.86
46394;BME280;32099;53.588;10.176;2022-08-19T05:34:25;100885.38;;;20.31;77.47
46394;BME280;32099;53.588;10.176;2022-08-19T05:36:52;100885.38;;;20.31;76.94
46394;BME280;32099;53.588;10.176;2022-08-19T05:39:22;100891.75;;;20.31;77.39
46394;BME280;32099;53.588;10.176;2022-08-19T05:41:49;100877.56;;;20.28;77.40
46394;BME280;32099;53.588;10.176;2022-08-19T05:44:15;100880.94;;;20.30;77.49
46394;BME280;32099;53.588;10.176;2022-08-19T05:46:42;100878.50;;;20.33;77.50
46394;BME280;32099;53.588;10.176;2022-08-19T05:49:07;100876.81;;;20.32;77.25
46394;BME280;32099;53.588;10.176;2022-08-19T05:51:33;100873.47;;;20.30;77.42
46394;BME280;32099;53.588;10.176;2022-08-19T05:53:59;100879.16;;;20.24;78.07
46394;BME280;32099;53.588;10.176;2022-08-19T05:56:24;100879.38;;;20.22;77.60
46394;BME280;32099;53.588;10.176;2022-08-19T05:58:49;100876.53;;;20.17;77.81
46394;BME280;32099;53.588;10.176;2022-08-19T06:01:17;100875.44;;;20.18;78.06
46394;BME280;32099;53.588;10.176;2022-08-19T06:03:43;100870.47;;;20.20;77.93
46394;BME280;32099;53.588;10.176;2022-08-19T06:06:09;100873.34;;;20.25;77.69
46394;BME280;32099;53.588;10.176;2022-08-19T06:08:35;100876.25;;;20.30;77.88
46394;BME280;32099;53.588;10.176;2022-08-19T06:11:18;100877.06;;;20.31;77.67
46394;BME280;32099;53.588;10.176;2022-08-19T06:13:45;100878.03;;;20.37;77.60
46394;BME280;32099;53.588;10.176;2022-08-19T06:16:12;100875.59;;;20.40;77.47
46394;BME280;32099;53.588;10.176;2022-08-19T06:18:37;100870.66;;;20.42;77.09
46394;BME280;32099;53.588;10.176;2022-08-19T06:21:02;100867.88;;;20.42;77.25
46394;BME280;32099;53.588;10.176;2022-08-19T06:23:29;100865.47;;;20.46;77.17
46394;BME280;32099;53.588;10.176;2022-08-19T06:25:54;100873.53;;;20.47;76.72
46394;BME280;32099;53.588;10.176;2022-08-19T06:28:19;100878.81;;;20.49;76.74
46394;BME280;32099;53.588;10.176;2022-08-19T06:30:44;100886.88;;;20.50;77.10
46394;BME280;32099;53.588;10.176;2022-08-19T06:33:10;100887.72;;;20.51;77.01
46394;BME280;32099;53.588;10.176;2022-08-19T06:35:38;100880.25;;;20.52;76.97
46394;BME280;32099;53.588;10.176;2022-08-19T06:38:03;100877.47;;;20.52;77.06
46394;BME280;32099;53.588;10.176;2022-08-19T06:40:29;100875.56;;;20.52;77.00
46394;BME280;32099;53.588;10.176;2022-08-19T06:42:55;100871.34;;;20.49;77.10
46394;BME280;32099;53.588;10.176;2022-08-19T06:45:21;100865.31;;;20.53;77.02
46394;BME280;32099;53.588;10.176;2022-08-19T06:47:46;100869.53;;;20.55;77.08
46394;BME280;32099;53.588;10.176;2022-08-19T06:50:13;100869.03;;;20.58;76.63
46394;BME280;32099;53.588;10.176;2022-08-19T06:52:39;100865.44;;;20.58;77.05
46394;BME280;32099;53.588;10.176;2022-08-19T06:55:04;100880.38;;;20.57;77.03
46394;BME280;32099;53.588;10.176;2022-08-19T06:57:29;100885.91;;;20.57;77.00
46394;BME280;32099;53.588;10.176;2022-08-19T06:59:57;100875.31;;;20.54;77.24
46394;BME280;32099;53.588;10.176;2022-08-19T07:02:24;100874.97;;;20.50;77.12
46394;BME280;32099;53.588;10.176;2022-08-19T07:04:51;100883.03;;;20.52;77.38
46394;BME280;32099;53.588;10.176;2022-08-19T07:07:16;100878.69;;;20.56;77.66
46394;BME280;32099;53.588;10.176;2022-08-19T07:09:42;100876.25;;;20.59;77.05
46394;BME280;32099;53.588;10.176;2022-08-19T07:12:12;100873.47;;;20.59;76.89
46394;BME280;32099;53.588;10.176;2022-08-19T07:14:39;100871.31;;;20.61;76.94
46394;BME280;32099;53.588;10.176;2022-08-19T07:17:06;100867.81;;;20.66;77.04
46394;BME280;32099;53.588;10.176;2022-08-19T07:19:31;100865.63;;;20.68;77.02
46394;BME280;32099;53.588;10.176;2022-08-19T07:21:57;100865.69;;;20.73;76.91
46394;BME280;32099;53.588;10.176;2022-08-19T07:24:24;100878.63;;;20.79;76.74
46394;BME280;32099;53.588;10.176;2022-08-19T07:26:50;100872.91;;;20.86;76.64
46394;BME280;32099;53.588;10.176;2022-08-19T07:29:16;100883.25;;;20.91;76.58
46394;BME280;32099;53.588;10.176;2022-08-19T07:31:41;100886.09;;;20.96;76.57
46394;BME280;32099;53.588;10.176;2022-08-19T07:34:07;100883.44;;;21.01;76.20
46394;BME280;32099;53.588;10.176;2022-08-19T07:36:33;100895.34;;;21.02;76.00
46394;BME280;32099;53.588;10.176;2022-08-19T07:39:00;100889.56;;;21.03;75.78
46394;BME280;32099;53.588;10.176;2022-08-19T07:41:27;100897.63;;;21.05;76.01
46394;BME280;32099;53.588;10.176;2022-08-19T07:43:53;100896.53;;;21.06;75.98
46394;BME280;32099;53.588;10.176;2022-08-19T07:46:19;100894.84;;;21.05;75.97
46394;BME280;32099;53.588;10.176;2022-08-19T07:48:45;100906.22;;;21.03;76.05
46394;BME280;32099;53.588;10.176;2022-08-19T07:51:13;100900.41;;;21.05;76.18
46394;BME280;32099;53.588;10.176;2022-08-19T07:53:38;100903.44;;;21.03;75.64
46394;BME280;32099;53.588;10.176;2022-08-19T07:56:04;100907.78;;;20.99;75.85
46394;BME280;32099;53.588;10.176;2022-08-19T07:58:30;100922.84;;;21.03;76.76
46394;BME280;32099;53.588;10.176;2022-08-19T08:00:56;100923.41;;;21.05;76.44
46394;BME280;32099;53.588;10.176;2022-08-19T08:03:22;100922.31;;;21.06;76.24
46394;BME280;32099;53.588;10.176;2022-08-19T08:06:07;100924.13;;;21.13;75.86
46394;BME280;32099;53.588;10.176;2022-08-19T08:08:51;100924.94;;;21.13;76.12
46394;BME280;32099;53.588;10.176;2022-08-19T08:11:35;100935.19;;;21.13;76.62
46394;BME280;32099;53.588;10.176;2022-08-19T08:14:01;100946.28;;;21.13;75.91
46394;BME280;32099;53.588;10.176;2022-08-19T08:16:26;100935.53;;;21.16;76.43
46394;BME280;32099;53.588;10.176;2022-08-19T08:18:54;100942.75;;;21.17;75.83
46394;BME280;32099;53.588;10.176;2022-08-19T08:21:20;100937.22;;;21.17;76.20
46394;BME280;32099;53.588;10.176;2022-08-19T08:23:45;100943.69;;;21.23;75.91
46394;BME280;32099;53.588;10.176;2022-08-19T08:26:10;100951.88;;;21.30;75.78
46394;BME280;32099;53.588;10.176;2022-08-19T08:28:37;100952.47;;;21.32;75.56
46394;BME280;32099;53.588;10.176;2022-08-19T08:31:02;100953.56;;;21.31;75.79
46394;BME280;32099;53.588;10.176;2022-08-19T08:33:28;100945.47;;;21.29;75.98
46394;BME280;32099;53.588;10.176;2022-08-19T08:35:54;100954.16;;;21.33;75.84
46394;BME280;32099;53.588;10.176;2022-08-19T08:38:19;100942.53;;;21.36;75.29
46394;BME280;32099;53.588;10.176;2022-08-19T08:40:46;100955.81;;;21.34;75.43
46394;BME280;32099;53.588;10.176;2022-08-19T08:43:27;100957.75;;;21.33;75.77
46394;BME280;32099;53.588;10.176;2022-08-19T08:48:23;100945.66;;;21.39;75.98
46394;BME280;32099;53.588;10.176;2022-08-19T08:50:49;100958.50;;;21.46;75.22
46394;BME280;32099;53.588;10.176;2022-08-19T08:53:17;100953.56;;;21.48;75.18
46394;BME280;32099;53.588;10.176;2022-08-19T08:55:44;100963.25;;;21.45;75.01
46394;BME280;32099;53.588;10.176;2022-08-19T08:58:14;100953.47;;;21.42;75.52
46394;BME280;32099;53.588;10.176;2022-08-19T09:00:43;100959.59;;;21.45;75.25
46394;BME280;32099;53.588;10.176;2022-08-19T09:03:19;100952.97;;;21.46;75.47
46394;BME280;32099;53.588;10.176;2022-08-19T09:08:17;100956.06;;;21.49;75.14
46394;BME280;32099;53.588;10.176;2022-08-19T09:10:49;100960.88;;;21.54;75.23
46394;BME280;32099;53.588;10.176;2022-08-19T09:13:37;100965.59;;;21.53;75.27
46394;BME280;32099;53.588;10.176;2022-08-19T09:16:07;100960.53;;;21.50;75.51
46394;BME280;32099;53.588;10.176;2022-08-19T09:18:47;100960.78;;;21.49;75.82
46394;BME280;32099;53.588;10.176;2022-08-19T09:21:16;100961.63;;;21.49;75.97
46394;BME280;32099;53.588;10.176;2022-08-19T09:23:41;100961.03;;;21.47;75.34
46394;BME280;32099;53.588;10.176;2022-08-19T09:26:11;100964.66;;;21.48;75.48
46394;BME280;32099;53.588;10.176;2022-08-19T09:28:38;100958.03;;;21.49;76.23
46394;BME280;32099;53.588;10.176;2022-08-19T09:31:03;100951.94;;;21.52;75.91
46394;BME280;32099;53.588;10.176;2022-08-19T09:33:28;100954.00;;;21.56;75.75
46394;BME280;32099;53.588;10.176;2022-08-19T09:36:04;100949.97;;;21.64;75.50
46394;BME280;32099;53.588;10.176;2022-08-19T09:38:29;100954.25;;;21.72;75.24
46394;BME280;32099;53.588;10.176;2022-08-19T09:40:54;100958.81;;;21.78;75.08
46394;BME280;32099;53.588;10.176;2022-08-19T09:43:20;100956.38;;;21.82;75.08
46394;BME280;32099;53.588;10.176;2022-08-19T09:45:45;100954.41;;;21.82;74.70
46394;BME280;32099;53.588;10.176;2022-08-19T09:48:10;100955.28;;;21.83;74.80
46394;BME280;32099;53.588;10.176;2022-08-19T09:50:35;100953.00;;;21.80;75.39
46394;BME280;32099;53.588;10.176;2022-08-19T09:53:03;100954.69;;;21.81;75.04
46394;BME280;32099;53.588;10.176;2022-08-19T09:55:28;100946.94;;;21.83;74.95
46394;BME280;32099;53.588;10.176;2022-08-19T09:57:53;100951.31;;;21.79;74.99
46394;BME280;32099;53.588;10.176;2022-08-19T10:00:18;100947.72;;;21.78;75.11
46394;BME280;32099;53.588;10.176;2022-08-19T10:02:44;100949.63;;;21.78;75.52
46394;BME280;32099;53.588;10.176;2022-08-19T10:05:09;100945.69;;;21.73;75.28
46394;BME280;32099;53.588;10.176;2022-08-19T10:07:53;100953.44;;;21.71;75.29
46394;BME280;32099;53.588;10.176;2022-08-19T10:10:18;100951.97;;;21.69;75.37
46394;BME280;32099;53.588;10.176;2022-08-19T10:12:46;100949.78;;;21.71;75.55
46394;BME280;32099;53.588;10.176;2022-08-19T10:15:13;100947.13;;;21.76;75.46
46394;BME280;32099;53.588;10.176;2022-08-19T10:17:39;100958.28;;;21.81;75.30
46394;BME280;32099;53.588;10.176;2022-08-19T10:20:04;100961.91;;;21.82;75.15
46394;BME280;32099;53.588;10.176;2022-08-19T10:22:31;100958.88;;;21.83;75.15
46394;BME280;32099;53.588;10.176;2022-08-19T10:24:57;100964.91;;;21.80;75.07
46394;BME280;32099;53.588;10.176;2022-08-19T10:27:22;100955.50;;;21.81;75.26
46394;BME280;32099;53.588;10.176;2022-08-19T10:29:47;100965.50;;;21.82;75.08
46394;BME280;32099;53.588;10.176;2022-08-19T10:32:13;100963.00;;;21.81;75.03
46394;BME280;32099;53.588;10.176;2022-08-19T10:34:38;100958.88;;;21.83;75.20
46394;BME280;32099;53.588;10.176;2022-08-19T10:37:04;100960.06;;;21.87;74.84
46394;BME280;32099;53.588;10.176;2022-08-19T10:39:31;100965.09;;;21.91;75.26
46394;BME280;32099;53.588;10.176;2022-08-19T10:41:57;100959.03;;;21.94;74.74
46394;BME280;32099;53.588;10.176;2022-08-19T10:44:22;100966.09;;;22.01;75.12
46394;BME280;32099;53.588;10.176;2022-08-19T10:46:48;100959.25;;;22.09;74.26
46394;BME280;32099;53.588;10.176;2022-08-19T10:49:14;100948.47;;;22.13;73.88
46394;BME280;32099;53.588;10.176;2022-08-19T10:51:39;100958.81;;;22.17;74.49
46394;BME280;32099;53.588;10.176;2022-08-19T10:54:23;100962.59;;;22.28;74.53
46394;BME280;32099;53.588;10.176;2022-08-19T10:57:08;100958.78;;;22.34;74.18
46394;BME280;32099;53.588;10.176;2022-08-19T10:59:34;100956.84;;;22.35;73.55
46394;BME280;32099;53.588;10.176;2022-08-19T11:02:00;100957.69;;;22.35;73.95
46394;BME280;32099;53.588;10.176;2022-08-19T11:04:26;100956.84;;;22.35;73.41
46394;BME280;32099;53.588;10.176;2022-08-19T11:06:51;100954.41;;;22.39;73.59
46394;BME280;32099;53.588;10.176;2022-08-19T11:09:17;100953.91;;;22.42;73.63
46394;BME280;32099;53.588;10.176;2022-08-19T11:11:43;100950.38;;;22.46;73.36
46394;BME280;32099;53.588;10.176;2022-08-19T11:14:09;100956.84;;;22.52;73.07
46394;BME280;32099;53.588;10.176;2022-08-19T11:16:35;100959.28;;;22.48;72.91
46394;BME280;32099;53.588;10.176;2022-08-19T11:19:01;100958.69;;;22.46;73.58
46394;BME280;32099;53.588;10.176;2022-08-19T11:23:53;100959.03;;;22.50;73.27
46394;BME280;32099;53.588;10.176;2022-08-19T11:26:19;100965.09;;;22.47;72.92
46394;BME280;32099;53.588;10.176;2022-08-19T11:28:44;100963.41;;;22.46;73.14
46394;BME280;32099;53.588;10.176;2022-08-19T11:31:10;100961.72;;;22.45;73.39
46394;BME280;32099;53.588;10.176;2022-08-19T11:33:36;100961.47;;;22.46;72.84
46394;BME280;32099;53.588;10.176;2022-08-19T11:36:01;100954.25;;;22.45;73.83
46394;BME280;32099;53.588;10.176;2022-08-19T11:38:27;100955.34;;;22.44;73.17
46394;BME280;32099;53.588;10.176;2022-08-19T11:40:59;100958.63;;;22.41;73.11
46394;BME280;32099;53.588;10.176;2022-08-19T11:43:25;100952.44;;;22.39;72.74
46394;BME280;32099;53.588;10.176;2022-08-19T11:45:51;100946.69;;;22.41;73.69
46394;BME280;32099;53.588;10.176;2022-08-19T11:48:16;100949.28;;;22.47;74.01
46394;BME280;32099;53.588;10.176;2022-08-19T11:50:42;100939.09;;;22.58;73.22
46394;BME280;32099;53.588;10.176;2022-08-19T11:53:08;100939.78;;;22.65;73.34
46394;BME280;32099;53.588;10.176;2022-08-19T11:55:36;100942.66;;;22.76;72.79
46394;BME280;32099;53.588;10.176;2022-08-19T11:58:03;100940.81;;;22.87;72.30
46394;BME280;32099;53.588;10.176;2022-08-19T12:00:31;100944.81;;;22.96;71.76
46394;BME280;32099;53.588;10.176;2022-08-19T12:02:56;100951.25;;;23.02;71.69
46394;BME280;32099;53.588;10.176;2022-08-19T12:05:21;100957.41;;;23.04;71.79
46394;BME280;32099;53.588;10.176;2022-08-19T12:07:46;100950.03;;;23.15;71.50
46394;BME280;32099;53.588;10.176;2022-08-19T12:10:11;100957.91;;;23.23;71.61
46394;BME280;32099;53.588;10.176;2022-08-19T12:12:37;100953.75;;;23.25;71.29
46394;BME280;32099;53.588;10.176;2022-08-19T12:15:07;100952.13;;;23.30;71.59
46394;BME280;32099;53.588;10.176;2022-08-19T12:17:32;100953.03;;;23.35;70.83
46394;BME280;32099;53.588;10.176;2022-08-19T12:19:58;100954.44;;;23.38;70.13
46394;BME280;32099;53.588;10.176;2022-08-19T12:22:23;100951.94;;;23.36;70.38
46394;BME280;32099;53.588;10.176;2022-08-19T12:24:49;100950.47;;;23.29;70.11
46394;BME280;32099;53.588;10.176;2022-08-19T12:27:15;100950.19;;;23.30;71.38
46394;BME280;32099;53.588;10.176;2022-08-19T12:29:41;100951.03;;;23.31;70.99
46394;BME280;32099;53.588;10.176;2022-08-19T12:32:06;100944.16;;;23.38;70.59
46394;BME280;32099;53.588;10.176;2022-08-19T12:34:33;100943.94;;;23.45;70.99
46394;BME280;32099;53.588;10.176;2022-08-19T12:37:01;100950.06;;;23.47;70.58
46394;BME280;32099;53.588;10.176;2022-08-19T12:39:26;100936.13;;;23.47;70.49
46394;BME280;32099;53.588;10.176;2022-08-19T12:41:52;100938.09;;;23.47;70.50
46394;BME280;32099;53.588;10.176;2022-08-19T12:44:17;100940.59;;;23.48;70.50
46394;BME280;32099;53.588;10.176;2022-08-19T12:46:42;100926.47;;;23.55;70.86
46394;BME280;32099;53.588;10.176;2022-08-19T12:49:07;100943.00;;;23.67;70.63